createdAt,value
2022-10-17T00:02:14.744Z,45.53
2022-10-17T00:04:41.488Z,45.51
2022-10-17T00:07:08.440Z,46.00
2022-10-17T00:09:35.165Z,45.54
2022-10-17T00:12:02.800Z,45.35
2022-10-17T00:14:29.608Z,45.62
2022-10-17T00:16:56.346Z,45.35
2022-10-17T00:19:23.149Z,45.57
2022-10-17T00:21:50.236Z,45.73
2022-10-17T00:24:17.229Z,45.65
2022-10-17T00:26:43.966Z,46.67
2022-10-17T00:29:10.897Z,45.92
2022-10-17T00:31:37.636Z,47.01
2022-10-17T00:34:04.923Z,46.58
2022-10-17T00:36:31.767Z,46.15
2022-10-17T00:38:59.431Z,46.44
2022-10-17T00:41:29.734Z,46.38
2022-10-17T00:44:26.262Z,46.30
2022-10-17T00:46:53.507Z,46.61
2022-10-17T00:49:22.387Z,46.10
2022-10-17T00:51:53.066Z,46.07
2022-10-17T00:54:24.899Z,45.93
2022-10-17T00:56:52.659Z,46.25
2022-10-17T00:59:21.670Z,46.23
2022-10-17T01:02:03.747Z,45.78
2022-10-17T01:04:30.968Z,46.23
2022-10-17T01:06:57.730Z,45.73
2022-10-17T01:09:26.635Z,45.89
2022-10-17T01:12:16.949Z,46.09
2022-10-17T01:14:56.265Z,45.76
2022-10-17T01:17:36.129Z,45.50
2022-10-17T01:20:37.205Z,44.79
2022-10-17T01:23:41.495Z,45.08
2022-10-17T01:26:17.154Z,45.23
2022-10-17T01:29:00.557Z,45.36
2022-10-17T01:31:45.926Z,45.45
2022-10-17T01:34:22.757Z,45.93
2022-10-17T01:36:56.672Z,46.31
2022-10-17T01:39:55.242Z,49.75
2022-10-17T01:42:33.939Z,49.11
2022-10-17T01:45:17.073Z,48.23
2022-10-17T01:47:46.457Z,47.25
2022-10-17T01:50:34.733Z,46.86
2022-10-17T01:53:21.160Z,46.28
2022-10-17T01:55:50.251Z,47.01
2022-10-17T01:58:28.575Z,47.85
2022-10-17T02:00:58.451Z,48.93
2022-10-17T02:03:28.343Z,47.55
2022-10-17T02:05:55.750Z,50.60
2022-10-17T02:08:41.611Z,51.80
2022-10-17T02:11:26.503Z,49.15
2022-10-17T02:14:10.154Z,48.16
2022-10-17T02:16:51.891Z,47.76
2022-10-17T02:20:10.043Z,47.28
2022-10-17T02:23:03.583Z,46.90
2022-10-17T02:26:07.358Z,46.50
2022-10-17T02:28:44.742Z,46.27
2022-10-17T02:31:25.535Z,46.78
2022-10-17T02:34:01.231Z,46.75
2022-10-17T02:36:40.224Z,46.52
2022-10-17T02:39:09.819Z,46.66
2022-10-17T02:41:38.007Z,46.52
2022-10-17T02:44:06.849Z,46.33
2022-10-17T02:46:35.789Z,46.47
2022-10-17T02:49:02.420Z,46.52
2022-10-17T02:51:36.949Z,47.40
2022-10-17T02:54:19.920Z,46.69
2022-10-17T02:56:59.578Z,47.18
2022-10-17T02:59:30.443Z,46.81
2022-10-17T03:01:57.455Z,46.63
2022-10-17T03:04:24.727Z,46.74
2022-10-17T03:06:51.719Z,46.75
2022-10-17T03:09:18.658Z,46.65
2022-10-17T03:11:45.500Z,46.62
2022-10-17T03:14:12.772Z,46.99
2022-10-17T03:16:40.583Z,46.88
2022-10-17T03:19:07.923Z,47.08
2022-10-17T03:21:37.408Z,47.32
2022-10-17T03:24:06.296Z,47.06
2022-10-17T03:26:33.309Z,46.65
2022-10-17T03:29:00.230Z,46.99
2022-10-17T03:31:29.174Z,46.78
2022-10-17T03:33:56.751Z,46.52
2022-10-17T03:36:23.680Z,46.06
2022-10-17T03:38:54.618Z,46.22
2022-10-17T03:41:22.702Z,46.94
2022-10-17T03:43:49.504Z,47.08
2022-10-17T03:48:45.040Z,46.65
2022-10-17T03:51:11.840Z,48.64
2022-10-17T03:53:44.415Z,47.54
2022-10-17T03:56:15.643Z,47.51
2022-10-17T03:58:44.257Z,48.32
2022-10-17T04:01:14.506Z,48.43
2022-10-17T04:03:42.257Z,48.24
2022-10-17T04:06:12.302Z,47.36
2022-10-17T04:08:42.734Z,47.71
2022-10-17T04:11:19.596Z,51.14
2022-10-17T04:13:53.868Z,50.52
2022-10-17T04:16:21.369Z,48.18
2022-10-17T04:18:57.711Z,47.78
2022-10-17T04:21:28.131Z,47.92
2022-10-17T04:24:00.855Z,47.81
2022-10-17T04:26:51.373Z,47.49
2022-10-17T04:29:19.394Z,47.65
2022-10-17T04:31:51.708Z,47.57
2022-10-17T04:34:59.464Z,48.09
2022-10-17T04:37:29.455Z,48.77
2022-10-17T04:39:57.163Z,48.96
2022-10-17T04:42:24.366Z,48.43
2022-10-17T04:44:53.355Z,49.27
2022-10-17T04:47:25.086Z,48.48
2022-10-17T04:49:52.458Z,47.49
2022-10-17T04:52:21.623Z,47.06
2022-10-17T04:54:50.169Z,46.84
2022-10-17T04:57:18.771Z,47.34
2022-10-17T04:59:59.055Z,47.46
2022-10-17T05:02:46.596Z,46.89
2022-10-17T05:05:16.885Z,46.93
2022-10-17T05:07:46.046Z,47.31
2022-10-17T05:10:19.153Z,47.33
2022-10-17T05:12:49.599Z,47.01
2022-10-17T05:15:18.428Z,47.38
2022-10-17T05:17:45.330Z,49.66
2022-10-17T05:20:13.142Z,47.26
2022-10-17T05:22:42.153Z,47.24
2022-10-17T05:25:11.265Z,47.38
2022-10-17T05:27:38.299Z,47.42
2022-10-17T05:30:06.443Z,47.34
2022-10-17T05:32:35.867Z,47.01
2022-10-17T05:35:04.295Z,47.04
2022-10-17T05:37:32.501Z,47.32
2022-10-17T05:40:00.780Z,47.74
2022-10-17T05:42:29.921Z,47.68
2022-10-17T05:44:58.424Z,47.64
2022-10-17T05:47:26.687Z,47.51
2022-10-17T05:49:53.673Z,47.60
2022-10-17T05:52:26.962Z,47.38
2022-10-17T05:55:06.194Z,47.86
2022-10-17T05:57:33.645Z,48.06
2022-10-17T06:00:01.598Z,48.14
2022-10-17T06:02:41.132Z,46.76
2022-10-17T06:05:09.082Z,46.07
2022-10-17T06:07:36.103Z,46.82
2022-10-17T06:10:04.776Z,46.95
2022-10-17T06:12:32.208Z,48.28
2022-10-17T06:14:59.311Z,47.51
2022-10-17T06:17:26.920Z,48.87
2022-10-17T06:19:53.603Z,48.19
2022-10-17T06:22:20.646Z,49.99
2022-10-17T06:24:47.638Z,49.24
2022-10-17T06:27:14.664Z,49.43
2022-10-17T06:29:41.602Z,50.14
2022-10-17T06:32:12.559Z,49.33
2022-10-17T06:34:43.252Z,49.21
2022-10-17T06:37:10.782Z,48.48
2022-10-17T06:39:39.754Z,47.01
2022-10-17T06:42:11.671Z,48.22
2022-10-17T06:44:54.164Z,47.62
2022-10-17T06:47:41.433Z,46.45
2022-10-17T06:50:23.037Z,46.23
2022-10-17T06:53:10.513Z,44.85
2022-10-17T06:55:53.998Z,47.46
2022-10-17T06:58:44.213Z,45.96
2022-10-17T07:01:23.795Z,47.26
2022-10-17T07:03:54.924Z,48.19
2022-10-17T07:06:26.823Z,48.15
2022-10-17T07:08:56.523Z,46.17
2022-10-17T07:11:23.456Z,47.31
2022-10-17T07:13:53.191Z,48.08
2022-10-17T07:16:22.490Z,48.79
2022-10-17T07:19:01.002Z,47.79
2022-10-17T07:21:36.601Z,46.55
2022-10-17T07:24:07.545Z,46.00
2022-10-17T07:26:34.858Z,45.12
2022-10-17T07:29:02.429Z,46.03
2022-10-17T07:31:39.501Z,46.03
2022-10-17T07:34:06.318Z,45.60
2022-10-17T07:36:33.163Z,44.16
2022-10-17T07:39:02.731Z,44.47
2022-10-17T07:41:31.025Z,44.53
2022-10-17T07:43:58.058Z,43.27
2022-10-17T07:46:32.382Z,42.56
2022-10-17T07:48:59.599Z,43.46
2022-10-17T07:51:26.932Z,42.51
2022-10-17T07:53:53.664Z,41.53
2022-10-17T07:56:24.568Z,42.27
2022-10-17T07:58:53.046Z,41.74
2022-10-17T08:01:19.981Z,39.59
2022-10-17T08:03:50.793Z,39.70
2022-10-17T08:06:18.334Z,38.57
2022-10-17T08:08:45.217Z,38.15
2022-10-17T08:11:14.645Z,39.43
2022-10-17T08:13:42.100Z,38.97
2022-10-17T08:16:12.228Z,38.11
2022-10-17T08:18:40.447Z,37.51
2022-10-17T08:21:08.410Z,36.90
2022-10-17T08:23:36.320Z,38.59
2022-10-17T08:26:05.073Z,39.16
2022-10-17T08:28:35.636Z,38.21
2022-10-17T08:31:07.854Z,38.95
2022-10-17T08:33:34.591Z,37.16
2022-10-17T08:36:01.604Z,37.19
2022-10-17T08:38:35.337Z,38.03
2022-10-17T08:41:13.652Z,36.65
2022-10-17T08:43:55.271Z,35.39
2022-10-17T08:46:22.844Z,37.36
2022-10-17T08:48:51.891Z,36.73
2022-10-17T08:51:24.438Z,34.90
2022-10-17T08:54:01.582Z,36.06
2022-10-17T08:56:55.582Z,34.70
2022-10-17T08:59:28.824Z,35.72
2022-10-17T09:02:28.724Z,34.34
2022-10-17T09:05:27.164Z,34.96
2022-10-17T09:07:56.773Z,32.94
2022-10-17T09:10:33.279Z,34.62
2022-10-17T09:13:32.210Z,34.14
2022-10-17T09:16:20.189Z,33.56
2022-10-17T09:19:03.205Z,32.29
2022-10-17T09:21:39.143Z,33.47
2022-10-17T09:24:16.333Z,32.71
2022-10-17T09:26:45.394Z,33.95
2022-10-17T09:29:20.663Z,31.82
2022-10-17T09:31:58.742Z,31.05
2022-10-17T09:34:28.342Z,30.96
2022-10-17T09:36:55.571Z,31.44
2022-10-17T09:39:32.088Z,31.08
2022-10-17T09:42:01.608Z,29.79
2022-10-17T09:44:35.515Z,28.37
2022-10-17T09:47:24.454Z,28.62
2022-10-17T09:49:51.814Z,28.16
2022-10-17T09:52:35.777Z,28.31
2022-10-17T09:55:17.736Z,27.88
2022-10-17T09:58:02.086Z,28.08
2022-10-17T10:00:35.122Z,28.91
2022-10-17T10:03:28.091Z,27.45
2022-10-17T10:06:00.559Z,26.58
2022-10-17T10:08:49.762Z,26.74
2022-10-17T10:11:18.105Z,26.42
2022-10-17T10:13:48.108Z,26.23
2022-10-17T10:16:17.443Z,25.56
2022-10-17T10:18:47.446Z,25.01
2022-10-17T10:21:23.096Z,24.84
2022-10-17T10:24:13.583Z,24.03
2022-10-17T10:26:48.816Z,24.16
2022-10-17T10:29:39.981Z,23.64
2022-10-17T10:32:28.797Z,23.87
2022-10-17T10:35:23.472Z,23.09
2022-10-17T10:37:53.772Z,23.39
2022-10-17T10:40:23.135Z,23.56
2022-10-17T10:42:52.449Z,23.86
2022-10-17T10:45:48.501Z,23.10
2022-10-17T10:48:18.423Z,24.53
2022-10-17T10:50:45.572Z,21.81
2022-10-17T10:53:49.567Z,21.86
2022-10-17T10:56:23.806Z,22.73
2022-10-17T10:59:09.012Z,24.16
2022-10-17T11:01:54.292Z,22.63
2022-10-17T11:04:36.234Z,22.85
2022-10-17T11:07:40.617Z,23.26
2022-10-17T11:10:37.452Z,22.58
2022-10-17T11:13:17.152Z,21.61
2022-10-17T11:15:49.721Z,22.67
2022-10-17T11:18:26.305Z,22.16
2022-10-17T11:21:11.497Z,22.44
2022-10-17T11:24:09.085Z,22.26
2022-10-17T11:27:00.562Z,23.01
2022-10-17T11:29:41.311Z,21.69
2022-10-17T11:32:19.770Z,22.24
2022-10-17T11:34:58.228Z,22.77
2022-10-17T11:37:34.694Z,22.72
2022-10-17T11:40:31.107Z,22.06
2022-10-17T11:43:02.419Z,21.02
2022-10-17T11:45:36.714Z,20.76
2022-10-17T11:48:12.751Z,22.02
2022-10-17T11:53:47.016Z,20.45
2022-10-17T11:56:21.209Z,21.52
2022-10-17T11:59:36.108Z,20.77
2022-10-17T12:02:14.125Z,20.23
2022-10-17T12:05:01.841Z,20.38
2022-10-17T12:07:47.221Z,20.67
2022-10-17T12:10:33.931Z,20.34
2022-10-17T12:13:28.368Z,19.38
2022-10-17T12:15:56.743Z,19.75
2022-10-17T12:18:29.649Z,19.75
2022-10-17T12:20:58.811Z,20.18
2022-10-17T12:23:30.310Z,19.67
2022-10-17T12:26:04.857Z,19.69
2022-10-17T12:28:41.190Z,18.81
2022-10-17T12:31:17.390Z,18.61
2022-10-17T12:33:57.629Z,17.87
2022-10-17T12:36:27.823Z,18.31
2022-10-17T12:39:03.426Z,17.19
2022-10-17T12:41:40.907Z,16.72
2022-10-17T12:44:13.574Z,17.17
2022-10-17T12:46:56.667Z,16.73
2022-10-17T12:49:38.847Z,15.77
2022-10-17T12:52:27.442Z,16.50
2022-10-17T12:55:12.526Z,16.42
2022-10-17T12:57:51.921Z,14.97
2022-10-17T13:00:18.608Z,15.51
2022-10-17T13:02:46.244Z,14.45
2022-10-17T13:05:24.663Z,14.83
2022-10-17T13:07:52.617Z,15.56
2022-10-17T13:10:23.002Z,15.76
2022-10-17T13:12:51.212Z,15.64
2022-10-17T13:15:20.307Z,14.50
2022-10-17T13:17:56.716Z,14.08
2022-10-17T13:20:30.589Z,14.51
2022-10-17T13:22:59.625Z,13.87
2022-10-17T13:25:27.694Z,13.90
2022-10-17T13:28:06.100Z,14.19
2022-10-17T13:30:35.829Z,14.06
2022-10-17T13:33:03.478Z,13.18
2022-10-17T13:35:59.470Z,14.25
2022-10-17T13:38:28.757Z,15.48
2022-10-17T13:41:05.930Z,16.22
2022-10-17T13:43:38.848Z,16.39
2022-10-17T13:46:32.533Z,16.09
2022-10-17T13:48:54.427Z,16.71
2022-10-17T13:51:22.320Z,16.96
2022-10-17T13:53:49.340Z,17.31
2022-10-17T13:56:29.492Z,17.91
2022-10-17T13:59:01.569Z,18.19
2022-10-17T14:01:29.683Z,18.07
2022-10-17T14:04:08.437Z,19.64
2022-10-17T14:06:46.266Z,20.21
2022-10-17T14:09:22.417Z,19.51
2022-10-17T14:12:02.856Z,20.05
2022-10-17T14:14:32.192Z,19.98
2022-10-17T14:17:14.484Z,20.85
2022-10-17T14:19:41.507Z,20.69
2022-10-17T14:22:26.436Z,20.89
2022-10-17T14:24:53.922Z,20.64
2022-10-17T14:27:32.134Z,21.04
2022-10-17T14:30:01.084Z,21.22
2022-10-17T14:32:30.864Z,21.09
2022-10-17T14:35:18.759Z,22.10
2022-10-17T14:37:50.835Z,24.05
2022-10-17T14:40:23.703Z,23.54
2022-10-17T14:42:55.992Z,23.88
2022-10-17T14:45:30.518Z,24.53
2022-10-17T14:48:09.308Z,25.37
2022-10-17T14:50:36.392Z,25.17
2022-10-17T14:53:10.500Z,25.51
2022-10-17T14:55:40.480Z,25.53
2022-10-17T14:58:24.886Z,25.66
2022-10-17T15:00:51.709Z,25.28
2022-10-17T15:03:19.459Z,25.18
2022-10-17T15:05:47.487Z,25.47
2022-10-17T15:08:18.859Z,25.59
2022-10-17T15:10:47.013Z,25.90
2022-10-17T15:13:27.565Z,25.89
2022-10-17T15:15:55.884Z,26.31
2022-10-17T15:18:22.582Z,26.62
2022-10-17T15:20:55.339Z,25.49
2022-10-17T15:23:31.451Z,26.07
2022-10-17T15:25:58.222Z,26.19
2022-10-17T15:28:25.008Z,25.74
2022-10-17T15:30:51.953Z,26.47
2022-10-17T15:33:18.614Z,26.29
2022-10-17T15:35:45.737Z,26.51
2022-10-17T15:38:18.012Z,26.74
2022-10-17T15:40:45.958Z,27.13
2022-10-17T15:43:18.766Z,27.24
2022-10-17T15:45:46.732Z,27.14
2022-10-17T15:48:24.501Z,26.59
2022-10-17T15:50:51.565Z,26.21
2022-10-17T15:53:18.299Z,26.63
2022-10-17T15:55:45.261Z,26.69
2022-10-17T15:58:16.648Z,27.08
2022-10-17T16:00:43.782Z,27.28
2022-10-17T16:03:10.851Z,27.47
2022-10-17T16:05:37.650Z,27.58
2022-10-17T16:08:04.636Z,27.26
2022-10-17T16:10:31.965Z,26.87
2022-10-17T16:12:58.854Z,27.35
2022-10-17T16:15:28.087Z,27.58
2022-10-17T16:18:01.709Z,27.09
2022-10-17T16:20:32.083Z,27.46
2022-10-17T16:23:02.380Z,27.76
2022-10-17T16:25:30.678Z,27.96
2022-10-17T16:27:59.381Z,27.53
2022-10-17T16:30:28.471Z,28.05
2022-10-17T16:32:55.855Z,28.70
2022-10-17T16:35:26.676Z,29.49
2022-10-17T16:37:53.952Z,29.13
2022-10-17T16:40:20.682Z,29.67
2022-10-17T16:42:47.527Z,31.58
2022-10-17T16:45:22.539Z,30.61
2022-10-17T16:47:50.668Z,30.91
2022-10-17T16:50:18.500Z,31.18
2022-10-17T16:52:45.475Z,31.73
2022-10-17T16:55:12.424Z,32.13
2022-10-17T16:57:39.190Z,32.20
2022-10-17T17:00:07.640Z,31.93
2022-10-17T17:02:34.647Z,31.40
2022-10-17T17:05:01.784Z,32.19
2022-10-17T17:07:29.896Z,33.22
2022-10-17T17:09:57.243Z,32.11
2022-10-17T17:12:24.465Z,31.55
2022-10-17T17:14:51.442Z,31.74
2022-10-17T17:17:30.349Z,31.87
2022-10-17T17:20:04.607Z,31.69
2022-10-17T17:22:31.851Z,32.28
2022-10-17T17:24:58.668Z,31.93
2022-10-17T17:27:28.460Z,30.51
2022-10-17T17:29:55.534Z,32.43
2022-10-17T17:32:22.297Z,31.84
2022-10-17T17:34:49.151Z,31.78
2022-10-17T17:37:15.883Z,32.08
2022-10-17T17:39:42.933Z,30.58
2022-10-17T17:42:09.656Z,31.20
2022-10-17T17:44:36.313Z,30.85
2022-10-17T17:47:03.114Z,31.09
2022-10-17T17:49:30.001Z,30.63
2022-10-17T17:51:56.774Z,31.63
2022-10-17T17:54:23.655Z,32.03
2022-10-17T17:56:50.426Z,30.88
2022-10-17T17:59:17.240Z,31.70
2022-10-17T18:01:44.266Z,31.59
2022-10-17T18:04:11.779Z,31.77
2022-10-17T18:06:40.162Z,31.87
2022-10-17T18:09:08.136Z,31.67
2022-10-17T18:11:36.565Z,32.43
2022-10-17T18:14:08.105Z,32.06
2022-10-17T18:16:36.788Z,32.04
2022-10-17T18:19:14.270Z,31.29
2022-10-17T18:21:41.177Z,31.38
2022-10-17T18:24:08.308Z,32.16
2022-10-17T18:26:35.486Z,31.82
2022-10-17T18:29:02.596Z,31.40
2022-10-17T18:31:32.216Z,31.40
2022-10-17T18:34:02.748Z,31.97
2022-10-17T18:36:31.085Z,32.04
2022-10-17T18:39:00.238Z,32.00
2022-10-17T18:41:27.725Z,32.25
2022-10-17T18:43:56.318Z,32.37
2022-10-17T18:46:26.066Z,31.77
2022-10-17T18:48:53.533Z,31.68
2022-10-17T18:51:23.805Z,32.19
2022-10-17T18:53:53.314Z,32.48
2022-10-17T18:56:21.257Z,32.43
2022-10-17T18:58:48.223Z,33.52
2022-10-17T19:01:21.564Z,34.02
2022-10-17T19:03:50.121Z,34.64
2022-10-17T19:06:20.158Z,32.75
2022-10-17T19:08:47.873Z,32.59
2022-10-17T19:11:23.038Z,32.61
2022-10-17T19:13:51.207Z,31.74
2022-10-17T19:16:20.700Z,31.59
2022-10-17T19:18:56.109Z,33.59
2022-10-17T19:21:24.358Z,33.17
2022-10-17T19:24:01.653Z,33.13
2022-10-17T19:26:30.889Z,33.63
2022-10-17T19:29:00.145Z,32.92
2022-10-17T19:31:29.937Z,32.96
2022-10-17T19:33:56.605Z,33.30
2022-10-17T19:36:28.889Z,32.73
2022-10-17T19:38:59.346Z,34.08
2022-10-17T19:41:26.617Z,33.77
2022-10-17T19:43:53.434Z,34.23
2022-10-17T19:46:25.045Z,34.29
2022-10-17T19:48:52.725Z,34.47
2022-10-17T19:51:24.530Z,34.71
2022-10-17T19:53:52.797Z,34.92
2022-10-17T19:56:21.067Z,34.83
2022-10-17T19:58:49.059Z,35.46
2022-10-17T20:01:18.951Z,34.71
2022-10-17T20:03:46.641Z,35.26
2022-10-17T20:06:13.968Z,35.69
2022-10-17T20:08:42.033Z,35.56
2022-10-17T20:11:24.530Z,35.63
2022-10-17T20:13:52.176Z,35.44
2022-10-17T20:16:25.590Z,35.09
2022-10-17T20:18:54.784Z,35.38
2022-10-17T20:21:27.181Z,35.51
2022-10-17T20:23:54.431Z,35.58
2022-10-17T20:26:37.495Z,35.34
2022-10-17T20:29:14.806Z,35.78
2022-10-17T20:31:43.794Z,36.27
2022-10-17T20:34:13.834Z,35.25
2022-10-17T20:36:40.741Z,35.68
2022-10-17T20:39:08.495Z,35.32
2022-10-17T20:41:35.552Z,35.72
2022-10-17T20:44:02.737Z,36.60
2022-10-17T20:46:36.887Z,37.28
2022-10-17T20:49:06.179Z,37.15
2022-10-17T20:51:34.032Z,36.04
2022-10-17T20:54:01.035Z,37.03
2022-10-17T20:56:30.463Z,36.96
2022-10-17T20:59:00.794Z,36.67
2022-10-17T21:01:28.969Z,36.92
2022-10-17T21:03:58.847Z,37.18
2022-10-17T21:06:27.535Z,36.67
2022-10-17T21:08:55.562Z,37.95
2022-10-17T21:11:25.720Z,37.78
2022-10-17T21:13:57.543Z,37.17
2022-10-17T21:16:25.656Z,37.52
2022-10-17T21:18:52.797Z,37.87
2022-10-17T21:21:21.832Z,37.45
2022-10-17T21:23:50.878Z,38.40
2022-10-17T21:26:19.003Z,38.27
2022-10-17T21:28:47.932Z,36.87
2022-10-17T21:31:34.774Z,37.69
2022-10-17T21:34:09.947Z,37.63
2022-10-17T21:36:37.948Z,36.87
2022-10-17T21:39:05.406Z,36.24
2022-10-17T21:41:32.941Z,36.54
2022-10-17T21:44:12.967Z,35.99
2022-10-17T21:46:40.241Z,36.15
2022-10-17T21:49:07.036Z,35.80
2022-10-17T21:51:33.759Z,36.05
2022-10-17T21:54:00.587Z,36.48
2022-10-17T21:56:29.843Z,36.36
2022-10-17T21:58:59.442Z,37.07
2022-10-17T22:01:33.985Z,36.73
2022-10-17T22:04:03.704Z,37.08
2022-10-17T22:06:39.761Z,37.61
2022-10-17T22:09:18.116Z,37.07
2022-10-17T22:11:47.788Z,37.06
2022-10-17T22:14:18.395Z,36.77
2022-10-17T22:16:46.815Z,37.39
2022-10-17T22:19:20.934Z,36.72
2022-10-17T22:21:47.989Z,37.18
2022-10-17T22:24:16.598Z,37.57
2022-10-17T22:26:44.640Z,37.67
2022-10-17T22:29:12.387Z,38.72
2022-10-17T22:31:39.866Z,37.26
2022-10-17T22:34:07.483Z,38.25
2022-10-17T22:36:35.466Z,37.27
2022-10-17T22:39:03.606Z,37.96
2022-10-17T22:41:30.504Z,38.50
2022-10-17T22:43:57.181Z,37.78
2022-10-17T22:46:24.113Z,37.60
2022-10-17T22:48:50.956Z,37.94
2022-10-17T22:51:18.046Z,38.03
2022-10-17T22:53:45.109Z,38.05
2022-10-17T22:56:17.643Z,37.57
2022-10-17T22:58:44.994Z,37.69
2022-10-17T23:01:18.504Z,38.13
2022-10-17T23:03:46.032Z,38.28
2022-10-17T23:06:12.865Z,38.35
2022-10-17T23:08:40.520Z,37.78
2022-10-17T23:11:07.983Z,38.58
2022-10-17T23:13:35.425Z,38.83
2022-10-17T23:16:02.385Z,39.53
2022-10-17T23:21:01.337Z,38.84
2022-10-17T23:23:28.012Z,39.39
2022-10-17T23:25:54.927Z,39.22
2022-10-17T23:28:21.673Z,38.81
2022-10-17T23:30:48.507Z,39.59
2022-10-17T23:33:15.272Z,39.73
2022-10-17T23:35:42.478Z,39.45
2022-10-17T23:38:09.797Z,39.09
2022-10-17T23:40:36.826Z,39.47
2022-10-17T23:43:04.572Z,39.74
2022-10-17T23:45:36.081Z,40.56
2022-10-17T23:48:05.138Z,40.89
2022-10-17T23:50:31.911Z,41.18
2022-10-17T23:52:58.653Z,42.40
2022-10-17T23:55:25.557Z,41.88
2022-10-17T23:57:52.348Z,42.36
